Time;durP1;ratioP1;P1;durP2;ratioP2;P2;SDS_P1;SDS_P2;PMS_P1;PMS_P2;Temp;Humidity;BMP_temperature;BMP_pressure;BME280_temperature;BME280_humidity;BME280_pressure;Samples;Min_cycle;Max_cycle;Signal;HPM_P1;HPM_P2
2022/01/22 00:02:29;;;;;;;21.55;10.35;;;;;;;;;;5047200;28;20025;-70
2022/01/22 00:05:15;;;;;;;15.43;8.38;;;;;;;;;;5034297;28;20443;-70
2022/01/22 00:08:00;;;;;;;20.90;9.18;;;;;;;;;;5048977;28;20036;-71
2022/01/22 00:10:47;;;;;;;14.35;8.88;;;;;;;;;;5033452;28;20021;-72
2022/01/22 00:16:37;;;;;;;16.58;7.57;;;;;;;;;;5042683;28;20053;-69
2022/01/22 00:19:22;;;;;;;19.17;9.40;;;;;;;;;;5033108;28;20037;-70
2022/01/22 00:22:08;;;;;;;16.10;7.95;;;;;;;;;;5050069;28;20033;-70
2022/01/22 00:24:57;;;;;;;15.23;7.65;;;;;;;;;;5048531;28;20028;-70
2022/01/22 00:27:43;;;;;;;16.38;8.27;;;;;;;;;;5050056;28;20483;-68
2022/01/22 00:30:29;;;;;;;14.02;7.88;;;;;;;;;;5049107;28;20098;-72
2022/01/22 00:33:17;;;;;;;14.07;7.93;;;;;;;;;;5032961;28;20044;-66
2022/01/22 00:36:03;;;;;;;13.85;7.90;;;;;;;;;;5036956;28;20045;-66
2022/01/22 00:38:48;;;;;;;15.35;7.75;;;;;;;;;;5048340;28;20060;-66
2022/01/22 00:41:34;;;;;;;14.35;7.72;;;;;;;;;;5025565;28;20025;-67
2022/01/22 00:44:19;;;;;;;16.63;6.97;;;;;;;;;;5046559;28;20119;-66
2022/01/22 00:47:05;;;;;;;15.05;8.18;;;;;;;;;;5058734;28;20025;-71
2022/01/22 00:49:50;;;;;;;15.65;7.65;;;;;;;;;;5046451;28;20365;-70
2022/01/22 00:52:35;;;;;;;12.52;7.45;;;;;;;;;;5060178;28;20056;-70
2022/01/22 00:55:20;;;;;;;18.65;9.00;;;;;;;;;;5050091;28;20042;-70
2022/01/22 00:58:06;;;;;;;16.92;8.52;;;;;;;;;;5047924;28;20044;-71
2022/01/22 01:00:51;;;;;;;12.77;6.90;;;;;;;;;;5051285;28;20530;-70
2022/01/22 01:03:37;;;;;;;11.38;7.30;;;;;;;;;;5049953;28;20040;-70
2022/01/22 01:06:22;;;;;;;14.48;7.25;;;;;;;;;;5047843;28;20055;-67
2022/01/22 01:09:09;;;;;;;9.73;6.18;;;;;;;;;;5050247;28;20200;-71
2022/01/22 01:11:59;;;;;;;11.55;7.25;;;;;;;;;;5046599;28;20535;-67
2022/01/22 01:14:53;;;;;;;10.05;5.72;;;;;;;;;;5048557;28;20073;-67
2022/01/22 01:35:45;;;;;;;12.32;6.90;;;;;;;;;;5046432;28;20021;-73
2022/01/22 01:38:37;;;;;;;11.38;6.20;;;;;;;;;;5036346;28;20075;-70
2022/01/22 01:41:41;;;;;;;12.10;6.30;;;;;;;;;;5035668;28;20128;-72
2022/01/22 01:44:27;;;;;;;10.27;6.35;;;;;;;;;;5034754;28;20025;-68
2022/01/22 01:47:16;;;;;;;13.77;6.18;;;;;;;;;;5046092;28;20025;-71
2022/01/22 01:50:01;;;;;;;10.85;7.05;;;;;;;;;;5032704;28;20392;-71
2022/01/22 01:52:52;;;;;;;15.35;6.53;;;;;;;;;;5049318;28;20123;-69
2022/01/22 01:56:03;;;;;;;9.18;6.13;;;;;;;;;;5030227;28;20057;-69
2022/01/22 01:58:49;;;;;;;9.90;5.65;;;;;;;;;;5036923;28;20587;-69
2022/01/22 02:01:34;;;;;;;12.85;6.07;;;;;;;;;;5051038;28;20032;-73
2022/01/22 02:04:19;;;;;;;11.35;6.40;;;;;;;;;;5043626;28;20028;-69
2022/01/22 02:07:05;;;;;;;12.90;7.38;;;;;;;;;;5051444;28;20059;-68
2022/01/22 02:09:50;;;;;;;13.95;7.55;;;;;;;;;;5036501;28;20028;-70
2022/01/22 02:24:54;;;;;;;12.75;7.43;;;;;;;;;;5044613;28;20032;-71
2022/01/22 02:27:39;;;;;;;9.52;5.60;;;;;;;;;;5037108;28;20025;-72
2022/01/22 02:30:29;;;;;;;11.18;6.18;;;;;;;;;;5044704;28;20053;-70
2022/01/22 02:33:31;;;;;;;9.90;5.53;;;;;;;;;;5045202;28;20047;-72
2022/01/22 02:39:22;;;;;;;10.27;5.63;;;;;;;;;;5049373;28;20434;-71
2022/01/22 02:42:07;;;;;;;13.55;8.05;;;;;;;;;;5051414;28;20028;-70
2022/01/22 02:44:53;;;;;;;13.70;7.15;;;;;;;;;;5038522;28;20024;-69
2022/01/22 02:47:38;;;;;;;11.93;6.47;;;;;;;;;;5049993;28;20471;-70
2022/01/22 02:50:24;;;;;;;12.60;6.88;;;;;;;;;;5051378;28;20036;-70
2022/01/22 02:53:10;;;;;;;12.40;7.28;;;;;;;;;;5046734;28;20032;-69
2022/01/22 02:55:56;;;;;;;11.63;6.47;;;;;;;;;;5036849;28;20051;-72
2022/01/22 02:58:42;;;;;;;13.05;6.05;;;;;;;;;;5033103;28;20545;-64
2022/01/22 03:01:27;;;;;;;10.18;6.70;;;;;;;;;;5040122;28;20052;-67
2022/01/22 03:04:12;;;;;;;11.35;6.03;;;;;;;;;;5048416;28;20101;-67
2022/01/22 03:06:58;;;;;;;11.68;6.55;;;;;;;;;;5036305;28;20031;-67
2022/01/22 03:09:47;;;;;;;12.30;6.90;;;;;;;;;;5048890;28;20048;-65
2022/01/22 03:27:25;;;;;;;10.98;6.00;;;;;;;;;;5044933;28;20021;-69
2022/01/22 03:30:10;;;;;;;10.23;6.53;;;;;;;;;;5050786;28;20517;-71
2022/01/22 03:32:56;;;;;;;13.38;6.88;;;;;;;;;;5030379;28;20087;-71
2022/01/22 03:35:46;;;;;;;11.55;7.30;;;;;;;;;;5044525;28;20029;-69
2022/01/22 03:38:31;;;;;;;9.65;6.40;;;;;;;;;;5031379;28;20075;-69
2022/01/22 03:41:16;;;;;;;10.40;6.50;;;;;;;;;;5048357;28;20118;-70
2022/01/22 03:44:04;;;;;;;11.40;6.63;;;;;;;;;;5057008;28;20504;-69
2022/01/22 03:46:49;;;;;;;14.93;7.35;;;;;;;;;;5050630;28;20484;-70
2022/01/22 03:49:34;;;;;;;12.60;7.05;;;;;;;;;;5035224;28;20025;-70
2022/01/22 03:52:20;;;;;;;14.45;6.50;;;;;;;;;;5050886;28;20039;-67
2022/01/22 03:55:07;;;;;;;16.88;7.47;;;;;;;;;;5047548;28;20124;-72
2022/01/22 03:57:53;;;;;;;11.32;6.82;;;;;;;;;;5049813;28;20021;-71
2022/01/22 04:00:38;;;;;;;12.68;6.90;;;;;;;;;;5039953;28;20025;-70
2022/01/22 04:03:34;;;;;;;16.75;7.25;;;;;;;;;;5050779;28;20040;-71
2022/01/22 04:09:14;;;;;;;15.50;8.30;;;;;;;;;;5048990;28;20033;-66
2022/01/22 04:12:00;;;;;;;10.02;7.07;;;;;;;;;;5050312;28;20496;-70
2022/01/22 04:14:56;;;;;;;13.27;7.20;;;;;;;;;;5047975;28;20021;-70
2022/01/22 04:29:24;;;;;;;14.98;8.85;;;;;;;;;;5048273;28;20424;-73
2022/01/22 04:32:09;;;;;;;12.82;7.78;;;;;;;;;;5056223;23;20046;-79
2022/01/22 04:34:54;;;;;;;12.43;7.82;;;;;;;;;;5036652;28;20083;-78
2022/01/22 04:37:40;;;;;;;12.38;7.80;;;;;;;;;;5053118;28;20028;-78
2022/01/22 04:40:26;;;;;;;13.45;7.68;;;;;;;;;;5052627;28;20021;-78
2022/01/22 04:43:11;;;;;;;14.90;7.82;;;;;;;;;;5053258;28;20029;-79
2022/01/22 04:49:11;;;;;;;10.73;7.13;;;;;;;;;;5047301;28;20014;-79
2022/01/22 04:55:02;;;;;;;15.98;8.23;;;;;;;;;;5033079;28;20109;-78
2022/01/22 04:57:48;;;;;;;14.27;8.95;;;;;;;;;;5032734;28;20420;-80
2022/01/22 05:00:34;;;;;;;14.23;7.70;;;;;;;;;;5032624;28;20085;-79
2022/01/22 05:03:20;;;;;;;13.05;7.90;;;;;;;;;;5032400;28;20078;-78
2022/01/22 05:06:06;;;;;;;20.98;7.70;;;;;;;;;;5032444;28;20028;-73
2022/01/22 05:08:52;;;;;;;14.05;7.57;;;;;;;;;;5032591;28;20071;-74
2022/01/22 05:11:38;;;;;;;13.02;7.75;;;;;;;;;;5032143;28;20472;-72
2022/01/22 05:14:24;;;;;;;11.77;8.20;;;;;;;;;;5032971;28;20127;-73
2022/01/22 05:17:09;;;;;;;13.43;7.90;;;;;;;;;;5033167;28;20025;-73
2022/01/22 05:20:05;;;;;;;12.23;7.82;;;;;;;;;;5033982;28;20021;-72
2022/01/22 05:25:52;;;;;;;15.82;7.93;;;;;;;;;;5033486;28;20017;-77
2022/01/22 05:31:55;;;;;;;16.60;8.00;;;;;;;;;;5033262;28;20146;-77
2022/01/22 05:37:45;;;;;;;12.88;7.55;;;;;;;;;;5032710;28;20049;-78
2022/01/22 05:40:30;;;;;;;13.75;7.85;;;;;;;;;;5032621;28;20025;-74
2022/01/22 05:43:16;;;;;;;12.52;7.53;;;;;;;;;;5033010;28;20021;-72
2022/01/22 05:46:02;;;;;;;13.75;7.90;;;;;;;;;;5032371;28;20028;-72
2022/01/22 05:48:47;;;;;;;13.68;7.95;;;;;;;;;;5031963;28;20018;-71
2022/01/22 05:51:34;;;;;;;13.20;7.80;;;;;;;;;;5031078;28;20060;-74
2022/01/22 05:54:47;;;;;;;13.05;7.63;;;;;;;;;;5033708;28;20029;-72
2022/01/22 06:00:30;;;;;;;12.90;7.30;;;;;;;;;;5032192;28;20025;-72
2022/01/22 06:03:15;;;;;;;13.45;7.53;;;;;;;;;;5031403;28;20128;-72
2022/01/22 06:06:01;;;;;;;12.55;7.53;;;;;;;;;;5030784;28;20084;-72
2022/01/22 06:08:52;;;;;;;13.95;8.45;;;;;;;;;;5032442;28;20033;-72
2022/01/22 06:12:37;;;;;;;13.75;7.55;;;;;;;;;;5032465;28;20021;-72
2022/01/22 06:14:46;;;;;;;12.13;7.32;;;;;;;;;;5031328;28;20029;-71
2022/01/22 06:17:32;;;;;;;14.27;8.00;;;;;;;;;;5031908;28;20025;-72
2022/01/22 06:20:17;;;;;;;14.02;7.63;;;;;;;;;;5032249;28;20021;-73
2022/01/22 06:23:03;;;;;;;13.23;7.70;;;;;;;;;;5032275;28;20036;-71
2022/01/22 06:25:49;;;;;;;14.90;8.07;;;;;;;;;;5032776;28;20025;-71
2022/01/22 06:28:36;;;;;;;13.70;7.68;;;;;;;;;;5033042;28;20022;-72
2022/01/22 06:31:21;;;;;;;12.60;8.00;;;;;;;;;;5031218;28;20084;-71
2022/01/22 06:34:07;;;;;;;12.15;7.30;;;;;;;;;;5032262;28;20024;-70
2022/01/22 06:36:52;;;;;;;13.60;7.78;;;;;;;;;;5034151;28;20025;-70
2022/01/22 06:39:51;;;;;;;12.18;7.18;;;;;;;;;;5035395;28;20112;-73
2022/01/22 06:42:37;;;;;;;13.52;7.55;;;;;;;;;;5036714;28;20026;-73
2022/01/22 06:45:22;;;;;;;11.85;7.25;;;;;;;;;;5035322;28;20025;-73
2022/01/22 06:48:08;;;;;;;11.25;7.88;;;;;;;;;;5036940;28;20368;-73
2022/01/22 06:50:54;;;;;;;13.05;7.53;;;;;;;;;;5036719;28;20033;-73
2022/01/22 06:53:40;;;;;;;14.38;8.57;;;;;;;;;;5036425;28;20064;-73
2022/01/22 06:56:28;;;;;;;12.80;7.22;;;;;;;;;;5035303;28;20017;-73
2022/01/22 06:59:13;;;;;;;14.80;7.32;;;;;;;;;;5035594;28;20029;-73
2022/01/22 07:01:59;;;;;;;11.18;7.38;;;;;;;;;;5034420;28;20064;-73
2022/01/22 07:04:45;;;;;;;12.73;7.78;;;;;;;;;;5034620;28;20030;-69
2022/01/22 07:07:31;;;;;;;15.27;8.35;;;;;;;;;;5034228;28;20136;-68
2022/01/22 07:10:16;;;;;;;14.85;7.38;;;;;;;;;;5035946;28;20037;-70
2022/01/22 07:13:02;;;;;;;14.18;7.50;;;;;;;;;;5036041;28;20036;-71
2022/01/22 07:15:48;;;;;;;16.83;8.32;;;;;;;;;;5035411;28;20379;-69
2022/01/22 07:18:34;;;;;;;14.30;7.85;;;;;;;;;;5034001;28;20385;-71
2022/01/22 07:21:21;;;;;;;14.13;8.43;;;;;;;;;;5036238;28;20017;-71
2022/01/22 07:24:23;;;;;;;16.30;7.93;;;;;;;;;;5034044;28;20061;-70
2022/01/22 07:27:08;;;;;;;15.02;7.10;;;;;;;;;;5036085;28;20033;-71
2022/01/22 07:29:54;;;;;;;17.25;7.97;;;;;;;;;;5034274;28;20519;-70
2022/01/22 07:32:43;;;;;;;14.05;7.25;;;;;;;;;;5034701;28;20079;-74
2022/01/22 07:35:28;;;;;;;14.33;8.13;;;;;;;;;;5033666;28;20465;-70
2022/01/22 07:38:14;;;;;;;16.27;8.85;;;;;;;;;;5035910;28;20029;-70
2022/01/22 07:40:59;;;;;;;15.13;7.75;;;;;;;;;;5034494;28;20075;-71
2022/01/22 07:43:45;;;;;;;15.18;8.23;;;;;;;;;;5034521;28;20044;-69
2022/01/22 07:46:30;;;;;;;12.93;7.10;;;;;;;;;;5035692;28;20032;-70
2022/01/22 07:49:19;;;;;;;15.10;8.23;;;;;;;;;;5035246;28;20021;-71
2022/01/22 07:52:05;;;;;;;17.90;8.43;;;;;;;;;;5034286;28;20064;-75
2022/01/22 07:54:50;;;;;;;17.13;8.85;;;;;;;;;;5034033;28;20017;-69
2022/01/22 07:57:36;;;;;;;14.60;8.82;;;;;;;;;;5033647;28;20105;-69
2022/01/22 08:00:21;;;;;;;15.80;8.95;;;;;;;;;;5035501;28;20017;-69
2022/01/22 08:03:08;;;;;;;15.50;8.07;;;;;;;;;;5033913;28;20420;-69
2022/01/22 08:05:54;;;;;;;17.58;8.73;;;;;;;;;;5034769;28;20017;-68
2022/01/22 08:08:40;;;;;;;15.93;8.50;;;;;;;;;;5035338;28;20170;-70
2022/01/22 08:11:26;;;;;;;13.45;8.02;;;;;;;;;;5033441;28;20419;-71
2022/01/22 08:14:13;;;;;;;17.38;9.23;;;;;;;;;;5033690;28;20041;-71
2022/01/22 08:16:58;;;;;;;15.73;9.27;;;;;;;;;;5034129;28;20053;-71
2022/01/22 08:19:44;;;;;;;15.40;9.52;;;;;;;;;;5034076;28;20021;-71
2022/01/22 08:22:30;;;;;;;18.20;9.40;;;;;;;;;;5033889;28;20029;-72
2022/01/22 08:25:15;;;;;;;16.30;10.13;;;;;;;;;;5033140;28;20337;-71
2022/01/22 08:30:47;;;;;;;18.33;10.07;;;;;;;;;;5034116;28;20056;-70
2022/01/22 08:36:37;;;;;;;16.25;10.80;;;;;;;;;;5033935;28;20018;-72
2022/01/22 08:39:22;;;;;;;20.85;11.02;;;;;;;;;;5033968;28;20413;-70
2022/01/22 08:42:08;;;;;;;18.30;12.20;;;;;;;;;;5033499;28;20027;-70
2022/01/22 08:44:53;;;;;;;20.42;11.82;;;;;;;;;;5034362;28;20022;-68
2022/01/22 08:47:39;;;;;;;17.30;11.10;;;;;;;;;;5031831;28;20033;-71
2022/01/22 08:50:25;;;;;;;18.10;11.23;;;;;;;;;;5031173;28;20067;-70
2022/01/22 08:53:10;;;;;;;18.60;11.65;;;;;;;;;;5031913;28;20025;-71
2022/01/22 08:55:58;;;;;;;19.67;11.13;;;;;;;;;;5033342;28;20014;-70
2022/01/22 08:58:44;;;;;;;18.73;12.73;;;;;;;;;;5030741;28;20025;-70
2022/01/22 09:01:29;;;;;;;18.33;11.25;;;;;;;;;;5033171;28;20032;-72
2022/01/22 09:04:16;;;;;;;17.52;10.82;;;;;;;;;;5034285;28;20057;-72
2022/01/22 09:07:01;;;;;;;19.83;10.10;;;;;;;;;;5031557;28;20105;-77
2022/01/22 09:09:48;;;;;;;17.10;10.27;;;;;;;;;;5032486;28;20029;-77
2022/01/22 09:12:34;;;;;;;19.02;11.23;;;;;;;;;;5034482;28;20025;-77
2022/01/22 09:15:19;;;;;;;17.73;10.95;;;;;;;;;;5031594;28;20022;-77
2022/01/22 09:18:06;;;;;;;19.42;11.00;;;;;;;;;;5033032;28;20025;-77
2022/01/22 09:23:37;;;;;;;15.80;9.73;;;;;;;;;;5033498;28;20025;-74
2022/01/22 09:26:23;;;;;;;16.17;9.77;;;;;;;;;;5033100;28;20081;-74
2022/01/22 09:29:09;;;;;;;16.65;10.20;;;;;;;;;;5032791;28;20488;-74
2022/01/22 09:31:55;;;;;;;17.92;9.52;;;;;;;;;;5030255;28;20128;-74
2022/01/22 09:34:40;;;;;;;17.25;10.75;;;;;;;;;;5033302;28;20018;-74
2022/01/22 09:37:26;;;;;;;19.48;12.18;;;;;;;;;;5031088;28;20022;-75
2022/01/22 09:40:12;;;;;;;16.55;8.98;;;;;;;;;;5033761;28;20028;-71
2022/01/22 09:42:59;;;;;;;16.58;10.40;;;;;;;;;;5032186;28;20021;-72
2022/01/22 09:45:44;;;;;;;14.40;8.88;;;;;;;;;;5032385;28;20066;-68
2022/01/22 09:48:30;;;;;;;18.80;10.55;;;;;;;;;;5033616;28;20540;-68
2022/01/22 09:51:16;;;;;;;17.08;10.27;;;;;;;;;;5033627;28;20036;-68
2022/01/22 09:54:02;;;;;;;22.55;10.02;;;;;;;;;;5033935;28;20018;-68
2022/01/22 09:56:47;;;;;;;19.80;9.50;;;;;;;;;;5032237;28;20025;-68
2022/01/22 10:02:49;;;;;;;18.42;10.30;;;;;;;;;;5031907;28;20087;-68
2022/01/22 10:05:37;;;;;;;20.50;9.15;;;;;;;;;;5033358;28;20084;-69
2022/01/22 10:08:24;;;;;;;15.90;9.70;;;;;;;;;;5033208;28;20116;-68
2022/01/22 10:11:21;;;;;;;17.58;8.85;;;;;;;;;;5034520;28;20492;-68
2022/01/22 10:14:07;;;;;;;15.40;8.48;;;;;;;;;;5035856;28;20053;-68
2022/01/22 10:16:53;;;;;;;16.40;9.57;;;;;;;;;;5035526;28;20018;-77
2022/01/22 10:19:38;;;;;;;19.25;8.63;;;;;;;;;;5035848;28;20063;-70
2022/01/22 10:22:24;;;;;;;15.32;8.82;;;;;;;;;;5036101;28;20013;-71
2022/01/22 10:25:25;;;;;;;15.05;7.70;;;;;;;;;;5034455;28;20026;-70
2022/01/22 10:28:21;;;;;;;14.15;9.00;;;;;;;;;;5036256;28;20460;-71
2022/01/22 10:31:10;;;;;;;15.98;8.88;;;;;;;;;;5036604;28;20455;-71
2022/01/22 10:34:06;;;;;;;17.73;10.15;;;;;;;;;;5036469;28;20025;-70
2022/01/22 10:36:56;;;;;;;13.05;8.30;;;;;;;;;;5034862;28;20104;-70
2022/01/22 10:39:41;;;;;;;;;;;;;;;;;;5037509;28;20025;-71
2022/01/22 10:42:29;;;;;;;16.85;9.05;;;;;;;;;;5035160;28;19948;-70
2022/01/22 10:45:23;;;;;;;12.70;8.32;;;;;;;;;;5035710;28;20021;-71
2022/01/22 10:48:12;;;;;;;13.57;7.93;;;;;;;;;;5034354;28;20456;-71
2022/01/22 10:50:59;;;;;;;13.90;9.10;;;;;;;;;;5035703;28;20021;-71
2022/01/22 10:53:46;;;;;;;14.57;9.38;;;;;;;;;;5035098;28;20144;-75
2022/01/22 10:56:32;;;;;;;12.80;8.07;;;;;;;;;;5035918;28;20210;-72
2022/01/22 10:59:19;;;;;;;16.85;8.50;;;;;;;;;;5036052;28;20021;-72
2022/01/22 11:02:06;;;;;;;15.55;8.68;;;;;;;;;;5035459;28;20018;-73
2022/01/22 11:04:52;;;;;;;15.73;8.27;;;;;;;;;;5036481;28;20028;-71
2022/01/22 11:07:37;;;;;;;16.58;8.88;;;;;;;;;;5036422;28;20025;-71
2022/01/22 11:10:23;;;;;;;13.30;8.57;;;;;;;;;;5035052;28;20029;-72
2022/01/22 11:13:08;;;;;;;13.73;8.38;;;;;;;;;;5035232;28;20029;-75
2022/01/22 11:15:55;;;;;;;12.65;8.00;;;;;;;;;;5035117;28;20029;-78
2022/01/22 11:18:42;;;;;;;18.63;9.23;;;;;;;;;;5035743;28;20366;-77
2022/01/22 11:21:28;;;;;;;16.92;9.57;;;;;;;;;;5035295;28;20060;-77
2022/01/22 11:24:16;;;;;;;13.90;9.10;;;;;;;;;;5034307;28;20037;-77
2022/01/22 11:27:03;;;;;;;14.70;9.32;;;;;;;;;;5034948;28;20538;-77
2022/01/22 11:29:48;;;;;;;14.05;8.88;;;;;;;;;;5035035;28;20502;-78
2022/01/22 11:32:44;;;;;;;15.77;9.20;;;;;;;;;;5035291;28;20464;-72
2022/01/22 11:35:42;;;;;;;14.02;8.95;;;;;;;;;;5033313;28;20036;-76
2022/01/22 11:38:29;;;;;;;13.40;8.63;;;;;;;;;;5033799;28;20025;-77
2022/01/22 11:41:20;;;;;;;13.10;8.23;;;;;;;;;;5034333;28;20044;-76
2022/01/22 11:44:12;;;;;;;20.45;9.48;;;;;;;;;;5034942;28;20033;-77
2022/01/22 11:47:08;;;;;;;21.38;8.98;;;;;;;;;;5035621;28;20017;-77
2022/01/22 11:50:06;;;;;;;14.63;8.38;;;;;;;;;;5034049;28;20013;-72
2022/01/22 11:53:12;;;;;;;14.48;8.43;;;;;;;;;;5034591;28;20047;-76
2022/01/22 11:56:09;;;;;;;11.48;8.45;;;;;;;;;;5034348;28;20100;-76
2022/01/22 11:58:55;;;;;;;14.73;8.38;;;;;;;;;;5035282;28;20025;-75
2022/01/22 12:01:41;;;;;;;12.40;8.15;;;;;;;;;;5033206;28;20388;-76
2022/01/22 12:04:27;;;;;;;13.35;9.13;;;;;;;;;;5035302;28;20029;-75
2022/01/22 12:07:14;;;;;;;11.07;7.50;;;;;;;;;;5035106;28;20043;-70
2022/01/22 12:10:15;;;;;;;12.43;7.22;;;;;;;;;;5035336;28;20017;-77
2022/01/22 12:16:47;;;;;;;10.18;6.18;;;;;;;;;;5033814;28;20136;-72
2022/01/22 12:19:46;;;;;;;11.82;6.63;;;;;;;;;;5035283;28;20053;-71
2022/01/22 12:22:34;;;;;;;12.68;6.90;;;;;;;;;;5034226;28;20040;-71
2022/01/22 12:25:23;;;;;;;11.48;6.85;;;;;;;;;;5033109;28;20041;-71
2022/01/22 12:28:09;;;;;;;13.75;7.50;;;;;;;;;;5032912;28;20014;-71
2022/01/22 12:31:00;;;;;;;11.30;6.22;;;;;;;;;;5033423;28;20053;-68
2022/01/22 12:33:47;;;;;;;10.02;5.65;;;;;;;;;;5032324;28;20036;-68
2022/01/22 12:36:38;;;;;;;11.88;6.13;;;;;;;;;;5033785;28;20129;-68
2022/01/22 12:39:28;;;;;;;10.52;5.55;;;;;;;;;;5033688;28;20461;-69
2022/01/22 12:42:23;;;;;;;10.30;5.55;;;;;;;;;;5034160;28;20017;-68
2022/01/22 12:45:09;;;;;;;11.45;6.03;;;;;;;;;;5032775;28;20147;-71
2022/01/22 12:47:54;;;;;;;13.00;5.82;;;;;;;;;;5033479;28;20013;-72
2022/01/22 12:50:40;;;;;;;11.63;5.57;;;;;;;;;;5033570;28;20022;-72
2022/01/22 12:53:26;;;;;;;9.73;6.18;;;;;;;;;;5033096;28;20032;-72
2022/01/22 12:56:35;;;;;;;9.07;4.88;;;;;;;;;;5033586;28;20022;-72
2022/01/22 12:59:19;;;;;;;7.82;4.38;;;;;;;;;;5032763;28;20021;-72
2022/01/22 13:02:05;;;;;;;9.80;4.63;;;;;;;;;;5033186;28;20059;-72
2022/01/22 13:05:01;;;;;;;10.52;4.50;;;;;;;;;;5032694;28;20021;-71
2022/01/22 13:07:52;;;;;;;6.85;4.00;;;;;;;;;;5032808;28;20053;-71
2022/01/22 13:10:43;;;;;;;9.70;4.15;;;;;;;;;;5034368;28;20108;-72
2022/01/22 13:13:29;;;;;;;9.30;5.32;;;;;;;;;;5032956;28;20417;-71
2022/01/22 13:16:17;;;;;;;7.00;4.45;;;;;;;;;;5046020;28;20059;-71
2022/01/22 13:19:02;;;;;;;9.50;4.82;;;;;;;;;;5032662;28;20065;-70
2022/01/22 13:21:51;;;;;;;7.55;4.22;;;;;;;;;;5032792;28;20028;-74
2022/01/22 13:24:37;;;;;;;9.82;4.97;;;;;;;;;;5033284;28;20101;-70
2022/01/22 13:27:22;;;;;;;8.35;4.75;;;;;;;;;;5032288;28;20464;-68
2022/01/22 13:30:12;;;;;;;8.48;4.75;;;;;;;;;;5032960;28;20044;-68
2022/01/22 13:33:03;;;;;;;10.13;4.82;;;;;;;;;;5032826;28;20409;-68
2022/01/22 13:36:11;;;;;;;10.77;5.45;;;;;;;;;;5034051;28;20072;-68
2022/01/22 13:45:18;;;;;;;9.73;5.35;;;;;;;;;;5032441;28;20025;-70
2022/01/22 13:48:04;;;;;;;9.73;6.05;;;;;;;;;;5033986;28;20112;-71
2022/01/22 13:50:49;;;;;;;8.40;5.05;;;;;;;;;;5033571;28;20376;-70
2022/01/22 13:53:36;;;;;;;8.25;5.65;;;;;;;;;;5031640;28;20021;-70
2022/01/22 13:56:47;;;;;;;9.68;5.97;;;;;;;;;;5032386;28;20026;-71
2022/01/22 13:59:37;;;;;;;11.48;5.93;;;;;;;;;;5031258;28;20071;-71
2022/01/22 14:05:09;;;;;;;11.13;6.93;;;;;;;;;;5033767;28;20456;-74
2022/01/22 14:08:03;;;;;;;10.07;6.30;;;;;;;;;;5032251;28;20021;-74
2022/01/22 14:10:49;;;;;;;9.73;5.63;;;;;;;;;;5032121;28;20522;-75
2022/01/22 14:13:35;;;;;;;10.80;6.82;;;;;;;;;;5032837;28;20033;-75
2022/01/22 14:16:22;;;;;;;10.93;6.60;;;;;;;;;;5032079;28;20057;-73
2022/01/22 14:19:08;;;;;;;11.93;6.15;;;;;;;;;;5032651;28;20461;-68
2022/01/22 14:21:56;;;;;;;11.85;7.65;;;;;;;;;;5030548;28;20034;-72
2022/01/22 14:24:42;;;;;;;12.48;7.35;;;;;;;;;;5032501;28;20018;-72
2022/01/22 14:27:27;;;;;;;14.00;7.40;;;;;;;;;;5032216;28;20473;-72
2022/01/22 14:30:13;;;;;;;9.23;6.18;;;;;;;;;;5031517;28;20024;-72
2022/01/22 14:32:59;;;;;;;12.38;6.55;;;;;;;;;;5031613;28;20449;-72
2022/01/22 14:35:57;;;;;;;13.07;7.95;;;;;;;;;;5032508;28;20026;-72
2022/01/22 14:38:52;;;;;;;11.27;6.88;;;;;;;;;;5030801;28;20380;-71
2022/01/22 14:44:55;;;;;;;11.35;7.78;;;;;;;;;;5032164;28;20018;-70
2022/01/22 14:47:40;;;;;;;12.20;7.72;;;;;;;;;;5031686;28;20026;-71
2022/01/22 14:50:27;;;;;;;14.20;8.25;;;;;;;;;;5031733;28;20026;-70
2022/01/22 14:53:13;;;;;;;10.90;7.15;;;;;;;;;;5031648;28;20040;-76
2022/01/22 14:56:02;;;;;;;12.85;8.63;;;;;;;;;;5031943;28;20013;-75
2022/01/22 14:58:47;;;;;;;13.85;8.65;;;;;;;;;;5034311;28;20025;-71
2022/01/22 15:01:33;;;;;;;13.82;8.45;;;;;;;;;;5035229;28;20029;-72
2022/01/22 15:04:18;;;;;;;16.80;9.13;;;;;;;;;;5035249;28;20014;-72
2022/01/22 15:07:07;;;;;;;12.38;8.00;;;;;;;;;;5035201;28;20105;-71
2022/01/22 15:09:52;;;;;;;11.02;8.23;;;;;;;;;;5035093;28;20028;-71
2022/01/22 15:12:38;;;;;;;14.90;9.55;;;;;;;;;;5035520;28;20037;-71
2022/01/22 15:15:30;;;;;;;15.02;9.65;;;;;;;;;;5035721;28;20088;-76
2022/01/22 15:18:39;;;;;;;14.55;9.25;;;;;;;;;;5034918;28;20479;-76
2022/01/22 15:21:21;;;;;;;16.30;10.70;;;;;;;;;;5034647;28;20028;-76
2022/01/22 15:24:07;;;;;;;15.25;10.88;;;;;;;;;;5033836;28;20385;-76
2022/01/22 15:26:53;;;;;;;15.90;10.27;;;;;;;;;;5033671;28;20025;-77
2022/01/22 15:32:55;;;;;;;16.00;9.48;;;;;;;;;;5034909;28;20129;-73
2022/01/22 15:35:40;;;;;;;14.07;9.00;;;;;;;;;;5035223;28;20014;-75
2022/01/22 15:38:26;;;;;;;15.50;11.10;;;;;;;;;;5034592;28;20021;-75
2022/01/22 15:41:12;;;;;;;17.17;9.60;;;;;;;;;;5033426;28;20018;-75
2022/01/22 15:43:57;;;;;;;17.83;9.00;;;;;;;;;;5034475;28;20117;-74
2022/01/22 15:46:45;;;;;;;14.80;9.73;;;;;;;;;;5034141;28;20021;-76
2022/01/22 15:49:31;;;;;;;15.32;8.40;;;;;;;;;;5035452;28;20036;-77
2022/01/22 15:52:17;;;;;;;16.00;9.30;;;;;;;;;;5034201;28;20091;-75
2022/01/22 15:55:08;;;;;;;13.32;8.18;;;;;;;;;;5034243;28;20025;-74
2022/01/22 15:57:53;;;;;;;12.93;7.82;;;;;;;;;;5034599;28;20028;-75
2022/01/22 16:00:40;;;;;;;12.93;7.80;;;;;;;;;;5034777;28;20017;-74
2022/01/22 16:03:27;;;;;;;13.65;8.05;;;;;;;;;;5034315;28;20028;-74
2022/01/22 16:06:19;;;;;;;14.23;8.35;;;;;;;;;;5034062;28;20030;-75
2022/01/22 16:09:15;;;;;;;13.88;9.20;;;;;;;;;;5033451;28;20021;-74
2022/01/22 16:12:01;;;;;;;12.68;8.93;;;;;;;;;;5032521;28;20407;-67
2022/01/22 16:14:47;;;;;;;13.27;7.47;;;;;;;;;;5035367;28;20036;-69
2022/01/22 16:17:33;;;;;;;13.98;9.40;;;;;;;;;;5033807;28;20025;-67
2022/01/22 16:20:22;;;;;;;16.65;9.45;;;;;;;;;;5034048;28;20030;-68
2022/01/22 16:23:07;;;;;;;16.73;9.65;;;;;;;;;;5034125;28;20029;-69
2022/01/22 16:25:53;;;;;;;14.20;9.77;;;;;;;;;;5034585;28;20116;-72
2022/01/22 16:28:39;;;;;;;16.65;9.43;;;;;;;;;;5034063;28;20017;-75
2022/01/22 16:31:24;;;;;;;14.68;9.40;;;;;;;;;;5032579;28;20053;-75
2022/01/22 16:34:10;;;;;;;17.20;10.55;;;;;;;;;;5034977;28;20167;-75
2022/01/22 16:36:56;;;;;;;17.88;10.13;;;;;;;;;;5032154;28;20094;-75
2022/01/22 16:39:41;;;;;;;15.02;9.65;;;;;;;;;;5034734;28;20029;-74
2022/01/22 16:42:30;;;;;;;13.07;8.90;;;;;;;;;;5033541;28;20026;-75
2022/01/22 16:51:31;;;;;;;13.60;9.63;;;;;;;;;;5033492;28;20076;-75
2022/01/22 17:00:00;;;;;;;21.73;11.07;;;;;;;;;;5034579;28;20419;-75
2022/01/22 17:02:51;;;;;;;17.65;11.10;;;;;;;;;;5033003;28;20063;-71
2022/01/22 17:05:40;;;;;;;18.48;12.23;;;;;;;;;;5033521;28;20026;-71
2022/01/22 17:11:19;;;;;;;20.50;11.55;;;;;;;;;;5033753;28;20030;-71
2022/01/22 17:14:11;;;;;;;18.10;10.65;;;;;;;;;;5034090;28;20083;-70
2022/01/22 17:16:57;;;;;;;19.65;12.60;;;;;;;;;;5032187;28;20414;-71
2022/01/22 17:19:43;;;;;;;22.17;13.38;;;;;;;;;;5032805;28;20036;-70
2022/01/22 17:22:28;;;;;;;18.70;12.45;;;;;;;;;;5031482;28;20021;-75
2022/01/22 17:25:16;;;;;;;22.92;12.73;;;;;;;;;;5033011;28;20040;-69
2022/01/22 17:28:01;;;;;;;27.23;13.70;;;;;;;;;;5034165;28;20432;-70
2022/01/22 17:30:47;;;;;;;22.98;14.35;;;;;;;;;;5031778;28;20066;-71
2022/01/22 17:33:32;;;;;;;23.48;13.93;;;;;;;;;;5033855;28;20038;-70
2022/01/22 17:36:21;;;;;;;20.90;13.60;;;;;;;;;;5031952;28;20028;-70
2022/01/22 17:39:12;;;;;;;23.90;15.18;;;;;;;;;;5031734;28;20072;-71
2022/01/22 17:41:58;;;;;;;25.00;15.10;;;;;;;;;;5032574;28;20025;-72
2022/01/22 17:44:47;;;;;;;26.73;15.35;;;;;;;;;;5031471;28;20071;-73
2022/01/22 17:47:33;;;;;;;22.70;13.48;;;;;;;;;;5032934;28;20021;-71
2022/01/22 17:50:19;;;;;;;23.55;15.60;;;;;;;;;;5032824;28;20075;-70
2022/01/22 17:53:05;;;;;;;18.77;12.73;;;;;;;;;;5033787;28;20120;-71
2022/01/22 17:55:51;;;;;;;20.00;13.60;;;;;;;;;;5032654;28;20083;-70
2022/01/22 17:58:37;;;;;;;22.30;14.25;;;;;;;;;;5033039;28;20075;-70
2022/01/22 18:01:23;;;;;;;24.25;14.50;;;;;;;;;;5030939;28;20052;-71
2022/01/22 18:04:08;;;;;;;21.38;13.73;;;;;;;;;;5031245;28;20428;-71
2022/01/22 18:06:55;;;;;;;22.52;14.80;;;;;;;;;;5033745;28;20494;-71
2022/01/22 18:09:41;;;;;;;22.95;13.77;;;;;;;;;;5033406;28;20025;-72
2022/01/22 18:12:26;;;;;;;22.80;13.50;;;;;;;;;;5030860;28;20041;-70
2022/01/22 18:15:12;;;;;;;16.88;11.82;;;;;;;;;;5033001;28;20111;-70
2022/01/22 18:18:01;;;;;;;18.20;12.57;;;;;;;;;;5031191;28;20025;-71
2022/01/22 18:20:46;;;;;;;18.60;12.00;;;;;;;;;;5031907;28;20026;-69
2022/01/22 18:23:32;;;;;;;24.95;13.93;;;;;;;;;;5030998;28;20032;-69
2022/01/22 18:26:17;;;;;;;24.02;14.02;;;;;;;;;;5031600;28;20018;-72
2022/01/22 18:29:04;;;;;;;21.75;13.38;;;;;;;;;;5033073;28;20389;-72
2022/01/22 18:31:52;;;;;;;24.02;14.45;;;;;;;;;;5032252;28;20136;-70
2022/01/22 18:34:40;;;;;;;23.52;14.30;;;;;;;;;;5034367;28;20075;-68
2022/01/22 18:37:27;;;;;;;21.60;12.88;;;;;;;;;;5037431;28;20025;-73
2022/01/22 18:40:14;;;;;;;21.13;14.30;;;;;;;;;;5034418;28;20056;-72